createdAt,value
2023-05-02T00:00:45.114Z,68.7576
2023-05-02T00:01:45.874Z,69.2149
2023-05-02T00:02:47.503Z,69.5880
2023-05-02T00:03:49.275Z,69.4195
2023-05-02T00:04:50.797Z,68.9424
2023-05-02T00:05:52.425Z,68.4030
2023-05-02T00:06:54.182Z,68.2805
2023-05-02T00:07:55.699Z,68.6577
2023-05-02T00:08:57.305Z,68.8853
2023-05-02T00:09:59.220Z,69.1462
2023-05-02T00:11:00.987Z,69.1562
2023-05-02T00:12:02.295Z,68.7031
2023-05-02T00:13:03.939Z,69.2828
2023-05-02T00:14:05.501Z,69.3862
2023-05-02T00:15:07.205Z,69.2955
2023-05-02T00:16:08.871Z,69.9402
2023-05-02T00:17:10.593Z,68.9124
2023-05-02T00:18:12.231Z,67.9637
2023-05-02T00:19:13.782Z,67.7898
2023-05-02T00:20:15.401Z,68.1370
2023-05-02T00:21:17.181Z,68.4691
2023-05-02T00:22:18.759Z,68.9879
2023-05-02T00:23:20.444Z,69.1756
2023-05-02T00:24:21.991Z,68.4122
2023-05-02T00:25:23.668Z,68.7550
2023-05-02T00:26:25.364Z,69.3392
2023-05-02T00:27:26.978Z,69.2090
2023-05-02T00:28:28.557Z,68.4565
2023-05-02T00:29:30.230Z,68.5552
2023-05-02T00:30:31.867Z,68.5178
2023-05-02T00:31:34.103Z,68.7416
2023-05-02T00:32:35.220Z,69.2532
2023-05-02T00:33:36.842Z,69.4008
2023-05-02T00:34:38.419Z,68.5150
2023-05-02T00:35:40.114Z,68.9235
2023-05-02T00:36:41.780Z,69.0419
2023-05-02T00:37:43.548Z,69.7105
2023-05-02T00:38:45.016Z,68.7789
2023-05-02T00:39:46.693Z,68.7533
2023-05-02T00:40:48.346Z,68.4837
2023-05-02T00:41:50.037Z,68.6947
2023-05-02T00:42:51.652Z,68.2261
2023-05-02T00:43:53.252Z,68.0595
2023-05-02T00:44:54.851Z,67.6289
2023-05-02T00:45:56.608Z,68.1194
2023-05-02T00:46:58.553Z,67.8855
2023-05-02T00:48:00.560Z,67.6824
2023-05-02T00:49:01.469Z,67.9272
2023-05-02T00:50:03.369Z,68.1742
2023-05-02T00:51:04.751Z,68.5456
2023-05-02T00:52:06.483Z,68.8594
2023-05-02T00:53:08.093Z,68.2367
2023-05-02T00:54:09.792Z,67.8367
2023-05-02T00:55:11.342Z,67.9238
2023-05-02T00:56:13.017Z,67.8069
2023-05-02T00:57:14.644Z,68.2402
2023-05-02T00:58:16.571Z,68.4411
2023-05-02T00:59:17.904Z,67.4002
2023-05-02T01:00:19.591Z,68.6399
2023-05-02T01:01:21.271Z,69.2760
2023-05-02T01:02:24.637Z,69.5561
2023-05-02T01:03:24.724Z,68.7505
2023-05-02T01:04:26.172Z,68.1841
2023-05-02T01:05:27.775Z,67.9493
2023-05-02T01:06:29.505Z,67.6436
2023-05-02T01:07:31.130Z,67.5232
2023-05-02T01:08:32.786Z,67.0119
2023-05-02T01:09:34.401Z,67.4405
2023-05-02T01:10:36.082Z,68.8038
2023-05-02T01:11:37.721Z,69.4732
2023-05-02T01:12:39.352Z,69.0524
2023-05-02T01:13:41.030Z,69.2198
2023-05-02T01:14:42.620Z,68.9502
2023-05-02T01:15:44.300Z,68.9909
2023-05-02T01:16:45.975Z,68.4182
2023-05-02T01:17:47.678Z,68.3254
2023-05-02T01:18:49.258Z,68.1901
2023-05-02T01:19:50.850Z,68.3571
2023-05-02T01:20:52.565Z,67.6131
2023-05-02T01:21:54.128Z,67.4307
2023-05-02T01:22:55.833Z,67.8281
2023-05-02T01:23:57.427Z,67.9148
2023-05-02T01:24:59.079Z,68.2557
2023-05-02T01:26:00.721Z,68.7003
2023-05-02T01:27:02.351Z,68.1113
2023-05-02T01:28:04.012Z,68.2310
2023-05-02T01:29:05.717Z,68.2913
2023-05-02T01:30:07.281Z,67.7064
2023-05-02T01:31:08.965Z,67.7843
2023-05-02T01:32:10.579Z,66.9160
2023-05-02T01:33:12.318Z,66.9065
2023-05-02T01:34:13.904Z,67.1935
2023-05-02T01:35:15.550Z,67.1013
2023-05-02T01:36:17.139Z,67.6441
2023-05-02T01:37:18.847Z,68.2683
2023-05-02T01:38:20.496Z,67.8770
2023-05-02T01:39:22.547Z,67.6716
2023-05-02T01:40:23.791Z,67.8840
2023-05-02T01:41:25.459Z,67.7165
2023-05-02T01:42:27.077Z,67.5468
2023-05-02T01:43:28.735Z,67.6515
2023-05-02T01:44:30.356Z,66.7630
2023-05-02T01:45:32.049Z,66.5653
2023-05-02T01:46:33.663Z,66.8690
2023-05-02T01:47:35.333Z,66.9099
2023-05-02T01:48:37.066Z,67.6478
2023-05-02T01:49:38.721Z,67.7000
2023-05-02T01:50:40.221Z,68.0449
2023-05-02T01:51:41.907Z,68.0441
2023-05-02T01:52:43.576Z,68.4350
2023-05-02T01:53:45.571Z,68.4256
2023-05-02T01:54:46.820Z,67.7391
2023-05-02T01:55:48.468Z,67.8529
2023-05-02T01:56:50.126Z,67.4966
2023-05-02T01:57:51.757Z,67.1680
2023-05-02T01:58:53.444Z,66.6884
2023-05-02T01:59:55.083Z,66.8351
2023-05-02T02:00:56.680Z,66.6693
2023-05-02T02:01:58.366Z,66.8279
2023-05-02T02:03:00.040Z,67.0058
2023-05-02T02:04:02.143Z,67.6894
2023-05-02T02:05:03.300Z,67.7402
2023-05-02T02:06:04.978Z,68.0695
2023-05-02T02:07:06.542Z,68.2499
2023-05-02T02:08:08.215Z,67.5719
2023-05-02T02:09:09.868Z,67.2114
2023-05-02T02:10:11.518Z,66.9360
2023-05-02T02:11:13.142Z,66.7537
2023-05-02T02:12:14.771Z,66.1455
2023-05-02T02:13:16.468Z,65.9586
2023-05-02T02:14:18.070Z,66.6095
2023-05-02T02:15:19.794Z,66.5776
2023-05-02T02:16:21.378Z,66.5204
2023-05-02T02:17:23.019Z,66.9022
2023-05-02T02:18:24.614Z,66.9426
2023-05-02T02:19:26.353Z,67.2254
2023-05-02T02:20:27.897Z,67.7992
2023-05-02T02:21:29.580Z,66.8932
2023-05-02T02:22:31.181Z,67.2181
2023-05-02T02:23:33.013Z,67.0003
2023-05-02T02:24:34.592Z,66.6030
2023-05-02T02:25:36.259Z,66.3380
2023-05-02T02:26:37.820Z,65.5808
2023-05-02T02:27:39.503Z,66.1511
2023-05-02T02:28:41.103Z,66.4255
2023-05-02T02:29:42.848Z,66.6928
2023-05-02T02:30:44.468Z,67.2453
2023-05-02T02:31:46.108Z,67.7979
2023-05-02T02:32:47.760Z,68.0038
2023-05-02T02:33:49.372Z,67.7027
2023-05-02T02:34:51.030Z,67.4442
2023-05-02T02:35:52.696Z,67.3724
2023-05-02T02:36:54.295Z,66.7856
2023-05-02T02:37:55.959Z,66.3776
2023-05-02T02:38:57.617Z,66.1858
2023-05-02T02:39:59.844Z,66.1672
2023-05-02T02:41:00.841Z,66.2893
2023-05-02T02:42:02.519Z,66.6543
2023-05-02T02:43:04.104Z,66.8163
2023-05-02T02:44:06.560Z,67.3206
2023-05-02T02:45:07.425Z,67.5444
2023-05-02T02:46:09.156Z,67.8930
2023-05-02T02:47:10.706Z,67.7624
2023-05-02T02:48:12.430Z,66.7656
2023-05-02T02:49:13.994Z,67.0155
2023-05-02T02:50:16.138Z,66.8697
2023-05-02T02:51:17.289Z,66.7769
2023-05-02T02:52:19.468Z,66.1846
2023-05-02T02:53:20.524Z,66.0652
2023-05-02T02:54:27.042Z,66.9403
2023-05-02T02:55:23.896Z,67.3128
2023-05-02T02:56:25.506Z,67.6925
2023-05-02T02:57:27.092Z,67.4531
2023-05-02T02:58:28.792Z,67.9369
2023-05-02T02:59:30.384Z,67.5993
2023-05-02T03:00:32.147Z,67.6827
2023-05-02T03:01:33.797Z,67.7078
2023-05-02T03:02:35.397Z,67.5401
2023-05-02T03:03:37.041Z,67.2725
2023-05-02T03:04:38.658Z,66.6425
2023-05-02T03:05:40.366Z,66.1025
2023-05-02T03:06:42.032Z,66.4649
2023-05-02T03:07:43.588Z,67.2806
2023-05-02T03:08:45.223Z,67.5495
2023-05-02T03:09:46.870Z,67.3841
2023-05-02T03:10:48.576Z,68.3389
2023-05-02T03:11:50.194Z,68.3386
2023-05-02T03:12:51.799Z,68.7603
2023-05-02T03:13:53.467Z,68.1686
2023-05-02T03:14:55.149Z,67.4878
2023-05-02T03:15:56.817Z,67.2689
2023-05-02T03:16:58.437Z,66.8273
2023-05-02T03:18:00.034Z,66.8972
2023-05-02T03:19:01.696Z,66.7596
2023-05-02T03:20:03.304Z,66.6667
2023-05-02T03:21:04.996Z,67.1698
2023-05-02T03:22:07.085Z,67.3757
2023-05-02T03:23:08.264Z,68.0709
2023-05-02T03:24:09.898Z,68.2844
2023-05-02T03:25:11.569Z,68.4140
2023-05-02T03:26:13.163Z,68.3205
2023-05-02T03:27:14.930Z,67.7623
2023-05-02T03:28:16.540Z,67.3581
2023-05-02T03:29:18.198Z,67.3465
2023-05-02T03:30:19.770Z,66.9069
2023-05-02T03:31:21.881Z,66.5554
2023-05-02T03:32:23.191Z,67.2955
2023-05-02T03:33:24.781Z,67.5632
2023-05-02T03:34:26.343Z,67.4993
2023-05-02T03:35:28.041Z,68.3328
2023-05-02T03:36:29.670Z,67.8010
2023-05-02T03:37:31.404Z,68.4718
2023-05-02T03:38:33.041Z,68.1711
2023-05-02T03:39:34.621Z,68.1902
2023-05-02T03:40:36.203Z,68.0131
2023-05-02T03:41:37.914Z,67.6904
2023-05-02T03:42:39.624Z,67.4135
2023-05-02T03:43:41.277Z,66.9601
2023-05-02T03:44:43.581Z,66.4861
2023-05-02T03:45:44.500Z,66.7389
2023-05-02T03:46:46.169Z,67.4918
2023-05-02T03:47:47.812Z,67.2748
2023-05-02T03:48:49.435Z,67.7176
2023-05-02T03:49:51.098Z,68.3248
2023-05-02T03:50:52.702Z,68.5771
2023-05-02T03:51:54.404Z,68.5484
2023-05-02T03:52:55.959Z,68.7365
2023-05-02T03:53:57.725Z,67.6277
2023-05-02T03:54:59.290Z,66.9354
2023-05-02T03:56:00.937Z,66.5769
2023-05-02T03:57:02.538Z,65.3186
2023-05-02T03:58:04.251Z,64.3662
2023-05-02T03:59:05.914Z,64.0499
2023-05-02T04:00:07.540Z,63.5150
2023-05-02T04:01:09.162Z,63.3810
2023-05-02T04:02:10.869Z,63.3387
2023-05-02T04:03:13.092Z,63.0913
2023-05-02T04:04:14.176Z,62.4781
2023-05-02T04:05:15.729Z,62.6480
2023-05-02T04:06:17.452Z,62.1014
2023-05-02T04:07:19.029Z,62.0672
2023-05-02T04:08:20.726Z,61.4060
2023-05-02T04:09:22.361Z,60.9822
2023-05-02T04:10:24.017Z,60.1305
2023-05-02T04:11:25.613Z,59.6393
2023-05-02T04:12:27.326Z,59.6241
2023-05-02T04:13:28.911Z,59.6366
2023-05-02T04:14:30.614Z,59.5717
2023-05-02T04:15:33.098Z,60.0716
2023-05-02T04:16:34.729Z,60.1732
2023-05-02T04:17:35.582Z,60.3841
2023-05-02T04:18:37.142Z,60.6042
2023-05-02T04:19:38.891Z,60.6516
2023-05-02T04:20:40.421Z,60.2400
2023-05-02T04:21:42.066Z,60.0768
2023-05-02T04:22:43.650Z,59.6183
2023-05-02T04:23:46.050Z,59.6807
2023-05-02T04:24:47.007Z,58.8722
2023-05-02T04:25:48.616Z,58.3886
2023-05-02T04:26:50.288Z,57.9254
2023-05-02T04:27:51.911Z,57.7632
2023-05-02T04:28:53.571Z,57.4802
2023-05-02T04:29:55.250Z,57.3450
2023-05-02T04:30:56.932Z,57.3833
2023-05-02T04:31:58.503Z,57.5705
2023-05-02T04:33:00.196Z,57.6434
2023-05-02T04:34:01.810Z,57.7024
2023-05-02T04:35:04.138Z,57.5737
2023-05-02T04:36:05.120Z,57.1710
2023-05-02T04:37:06.726Z,57.2044
2023-05-02T04:38:08.392Z,57.0334
2023-05-02T04:39:10.043Z,57.2123
2023-05-02T04:40:11.677Z,57.1540
2023-05-02T04:41:13.357Z,57.4196
2023-05-02T04:42:14.993Z,57.5752
2023-05-02T04:43:16.625Z,57.9136
2023-05-02T04:44:18.296Z,57.7805
2023-05-02T04:45:19.984Z,57.8411
2023-05-02T04:46:21.623Z,57.9915
2023-05-02T04:47:23.240Z,58.0654
2023-05-02T04:48:24.840Z,57.9716
2023-05-02T04:49:26.598Z,58.2418
2023-05-02T04:50:28.323Z,58.1355
2023-05-02T04:51:29.848Z,58.2004
2023-05-02T04:52:31.487Z,58.4468
2023-05-02T04:53:33.072Z,58.4354
2023-05-02T04:54:34.781Z,58.3394
2023-05-02T04:55:36.561Z,58.2519
2023-05-02T04:56:38.576Z,58.3240
2023-05-02T04:57:39.671Z,58.3402
2023-05-02T04:58:41.330Z,58.2079
2023-05-02T04:59:42.987Z,58.1426
2023-05-02T05:00:44.652Z,58.4572
2023-05-02T05:01:46.433Z,58.5725
2023-05-02T05:02:47.975Z,58.6536
2023-05-02T05:03:49.688Z,58.6322
2023-05-02T05:04:51.229Z,58.7076
2023-05-02T05:05:53.089Z,58.8102
2023-05-02T05:06:54.664Z,58.8061
2023-05-02T05:07:56.167Z,59.0937
2023-05-02T05:08:57.790Z,59.0631
2023-05-02T05:09:59.537Z,59.3240
2023-05-02T05:11:01.058Z,58.9224
2023-05-02T05:12:02.963Z,59.0930
2023-05-02T05:13:04.492Z,59.0482
2023-05-02T05:14:06.187Z,58.9442
2023-05-02T05:15:07.850Z,59.0657
2023-05-02T05:16:09.496Z,58.9269
2023-05-02T05:17:11.114Z,59.2344
2023-05-02T05:18:12.838Z,59.4522
2023-05-02T05:19:14.408Z,59.4592
2023-05-02T05:20:16.034Z,59.3979
2023-05-02T05:21:17.699Z,59.5222
2023-05-02T05:22:20.339Z,59.4031
2023-05-02T05:23:21.881Z,59.1579
2023-05-02T05:24:22.789Z,58.7842
2023-05-02T05:25:24.212Z,58.9721
2023-05-02T05:26:25.954Z,59.0010
2023-05-02T05:27:27.554Z,59.0999
2023-05-02T05:28:29.219Z,58.9509
2023-05-02T05:29:30.857Z,58.9364
2023-05-02T05:30:32.496Z,58.9851
2023-05-02T05:31:34.227Z,59.0639
2023-05-02T05:32:35.834Z,59.2445
2023-05-02T05:33:37.465Z,59.1579
2023-05-02T05:34:39.110Z,59.2060
2023-05-02T05:35:40.703Z,59.2774
2023-05-02T05:36:42.361Z,59.5198
2023-05-02T05:37:44.070Z,59.7378
2023-05-02T05:38:45.677Z,59.7889
2023-05-02T05:39:47.302Z,59.8611
2023-05-02T05:40:48.911Z,59.9237
2023-05-02T05:41:50.586Z,60.0692
2023-05-02T05:42:52.269Z,60.0820
2023-05-02T05:43:53.941Z,60.1867
2023-05-02T05:44:55.486Z,60.2012
2023-05-02T05:45:57.220Z,60.4958
2023-05-02T05:46:58.926Z,60.4558
2023-05-02T05:48:00.533Z,60.4428
2023-05-02T05:49:02.188Z,60.5339
2023-05-02T05:50:03.962Z,60.5102
2023-05-02T05:51:05.436Z,60.6862
2023-05-02T05:52:07.066Z,60.7143
2023-05-02T05:53:08.626Z,60.7645
2023-05-02T05:54:10.334Z,60.8468
2023-05-02T05:55:11.965Z,60.9026
2023-05-02T05:56:13.938Z,60.8246
2023-05-02T05:57:15.778Z,60.8640
2023-05-02T05:58:16.928Z,60.6997
2023-05-02T05:59:18.466Z,60.8695
2023-05-02T06:00:20.172Z,60.9187
2023-05-02T06:01:21.769Z,61.1950
2023-05-02T06:02:23.612Z,61.0744
2023-05-02T06:03:25.168Z,60.9391
2023-05-02T06:04:26.829Z,61.0434
2023-05-02T06:05:28.306Z,60.9856
2023-05-02T06:06:30.034Z,60.8645
2023-05-02T06:07:31.602Z,60.8059
2023-05-02T06:08:33.303Z,60.9320
2023-05-02T06:09:34.927Z,61.0718
2023-05-02T06:10:36.583Z,61.0632
2023-05-02T06:11:38.249Z,61.0227
2023-05-02T06:12:39.877Z,61.0306
2023-05-02T06:13:41.615Z,61.3010
